Eagle Turin — 9VMG6 — position and weather

sailwx.info

Track history (hours):
 
Tides and Currents Weather Stations Pressure Air Temp Water Temp Dewpoint Dewpoint Depression Visibility Wind Speed Wind Dir Waves Ship Positions

Eagle Turin

Last reported at 2015-Aug-31 02:33 UTC. Time now 2015-Aug-31 02:37 UTC.
Position N 53°41' E 000°24'.

Length 246 m; draft 12.7 m.

Type: Tanker. MMSI: 565770000.

Date/timePositionNaut miles runAvg speedWind from/ knotsBaromVisibWave heightAir tempDewpointWater temp
2015-Aug-31 02:33N 53°41' E 000°24'7 7.2
2015-Aug-31 01:33N 53°47' E 000°28'7 6.7
2015-Aug-31 00:33N 53°54' E 000°31'1110.9
2015-Aug-30 23:33N 54°05' E 000°34'1111.2
2015-Aug-30 22:33N 54°15' E 000°41'1211.5
2015-Aug-30 21:33N 54°25' E 000°50'1211.6
2015-Aug-30 20:33N 54°36' E 000°59'1111.4
2015-Aug-30 19:33N 54°46' E 001°08'1211.6
2015-Aug-30 18:33N 54°56' E 001°18'1211.7
2015-Aug-30 17:33N 55°06' E 001°28'1711.9
2015-Aug-30 16:08N 55°21' E 001°43'  
2015-Aug-26 05:21N 53°60' E 004°38'3612.5
2015-Aug-26 02:27N 53°34' E 003°55'8013.0
2015-Aug-25 20:21N 52°24' E 002°53'1112.4
2015-Aug-25 19:26N 52°13' E 002°50'7 0.8
2015-Aug-25 11:00N 52°06' E 002°48'0 0.0 250 / 251010.0 5.4 1.520.016.9
2015-Aug-24 11:00N 52°06' E 002°48'2 1.2 140 / 151000.0 5.4 0.519.015.9
2015-Aug-24 09:22N 52°07' E 002°50'0 0.1
2015-Aug-24 06:04N 52°07' E 002°50'0 0.3
2015-Aug-24 05:28N 52°07' E 002°50'0 0.1
2015-Aug-24 04:13N 52°07' E 002°50'0 0.0
2015-Aug-23 12:28N 52°07' E 002°50'0 0.0
2015-Aug-23 10:10N 52°07' E 002°50'0 0.0
2015-Aug-23 08:22N 52°07' E 002°50'0 0.0
2015-Aug-23 07:31N 52°07' E 002°50'0 0.0
2015-Aug-23 06:31N 52°07' E 002°50'0 0.0
2015-Aug-23 05:31N 52°07' E 002°50'0 0.0
2015-Aug-23 04:28N 52°07' E 002°50'0 0.0
2015-Aug-23 03:31N 52°07' E 002°50'0 0.0
2015-Aug-23 02:25N 52°07' E 002°50'0 0.0
2015-Aug-23 01:19N 52°07' E 002°50'0 0.0
2015-Aug-23 00:22N 52°07' E 002°50'0 0.0
2015-Aug-22 23:31N 52°07' E 002°50'0 0.0
2015-Aug-22 22:25N 52°07' E 002°50'0 0.1
2015-Aug-22 21:10N 52°07' E 002°50'0 0.0
2015-Aug-22 14:10N 52°07' E 002°50'0 0.0
2015-Aug-22 13:28N 52°07' E 002°50'0 0.0
2015-Aug-22 12:28N 52°07' E 002°50'0 0.0
2015-Aug-22 11:22N 52°07' E 002°50'0 0.1
2015-Aug-22 10:31N 52°07' E 002°50'0 0.1
2015-Aug-22 09:28N 52°07' E 002°50'0 0.0
2015-Aug-22 08:31N 52°08' E 002°50'0 0.0
2015-Aug-22 07:22N 52°08' E 002°50'0 0.0
2015-Aug-22 06:10N 52°08' E 002°50'0 0.0
2015-Aug-22 05:28N 52°08' E 002°50'0 0.0
2015-Aug-22 04:31N 52°08' E 002°50'0 0.2
2015-Aug-22 03:19N 52°07' E 002°50'  
Track history (hours):
 
Tides and Currents Weather Stations Pressure Air Temp Water Temp Dewpoint Dewpoint Depression Visibility Wind Speed Wind Dir Waves Ship Positions

Eagle Turin

Last reported at 2015-Aug-31 02:33 UTC. Time now 2015-Aug-31 02:37 UTC.
Position N 53°41' E 000°24'.

Length 246 m; draft 12.7 m.

Type: Tanker. MMSI: 565770000.

Date/timePositionNaut miles runAvg speedWind from/ knotsBaromVisibWave heightAir tempDewpointWater temp
2015-Aug-31 02:33N 53°41' E 000°24'7 7.2
2015-Aug-31 01:33N 53°47' E 000°28'7 6.7
2015-Aug-31 00:33N 53°54' E 000°31'1110.9
2015-Aug-30 23:33N 54°05' E 000°34'1111.2
2015-Aug-30 22:33N 54°15' E 000°41'1211.5
2015-Aug-30 21:33N 54°25' E 000°50'1211.6
2015-Aug-30 20:33N 54°36' E 000°59'1111.4
2015-Aug-30 19:33N 54°46' E 001°08'1211.6
2015-Aug-30 18:33N 54°56' E 001°18'1211.7
2015-Aug-30 17:33N 55°06' E 001°28'1711.9
2015-Aug-30 16:08N 55°21' E 001°43'  
2015-Aug-26 05:21N 53°60' E 004°38'3612.5
2015-Aug-26 02:27N 53°34' E 003°55'8013.0
2015-Aug-25 20:21N 52°24' E 002°53'1112.4
2015-Aug-25 19:26N 52°13' E 002°50'7 0.8
2015-Aug-25 11:00N 52°06' E 002°48'0 0.0 250 / 251010.0 5.4 1.520.016.9
2015-Aug-24 11:00N 52°06' E 002°48'2 1.2 140 / 151000.0 5.4 0.519.015.9
2015-Aug-24 09:22N 52°07' E 002°50'0 0.1
2015-Aug-24 06:04N 52°07' E 002°50'0 0.3
2015-Aug-24 05:28N 52°07' E 002°50'0 0.1
2015-Aug-24 04:13N 52°07' E 002°50'0 0.0
2015-Aug-23 12:28N 52°07' E 002°50'0 0.0
2015-Aug-23 10:10N 52°07' E 002°50'0 0.0
2015-Aug-23 08:22N 52°07' E 002°50'0 0.0
2015-Aug-23 07:31N 52°07' E 002°50'0 0.0
2015-Aug-23 06:31N 52°07' E 002°50'0 0.0
2015-Aug-23 05:31N 52°07' E 002°50'0 0.0
2015-Aug-23 04:28N 52°07' E 002°50'0 0.0
2015-Aug-23 03:31N 52°07' E 002°50'0 0.0
2015-Aug-23 02:25N 52°07' E 002°50'0 0.0
2015-Aug-23 01:19N 52°07' E 002°50'0 0.0
2015-Aug-23 00:22N 52°07' E 002°50'0 0.0
2015-Aug-22 23:31N 52°07' E 002°50'0 0.0
2015-Aug-22 22:25N 52°07' E 002°50'0 0.1
2015-Aug-22 21:10N 52°07' E 002°50'0 0.0
2015-Aug-22 14:10N 52°07' E 002°50'0 0.0
2015-Aug-22 13:28N 52°07' E 002°50'0 0.0
2015-Aug-22 12:28N 52°07' E 002°50'0 0.0
2015-Aug-22 11:22N 52°07' E 002°50'0 0.1
2015-Aug-22 10:31N 52°07' E 002°50'0 0.1
2015-Aug-22 09:28N 52°07' E 002°50'0 0.0
2015-Aug-22 08:31N 52°08' E 002°50'0 0.0
2015-Aug-22 07:22N 52°08' E 002°50'0 0.0
2015-Aug-22 06:10N 52°08' E 002°50'0 0.0
2015-Aug-22 05:28N 52°08' E 002°50'0 0.0
2015-Aug-22 04:31N 52°08' E 002°50'0 0.2
2015-Aug-22 03:19N 52°07' E 002°50'  

Dump ship's entire track history